createdAt,value
2018-12-31T00:02:28.305Z,20.82
2018-12-31T00:04:59.993Z,22.30
2018-12-31T00:07:29.498Z,20.62
2018-12-31T00:09:59.551Z,20.65
2018-12-31T00:12:28.941Z,23.42
2018-12-31T00:14:59.734Z,23.05
2018-12-31T00:17:30.189Z,22.13
2018-12-31T00:20:00.197Z,20.95
2018-12-31T00:22:29.105Z,22.17
2018-12-31T00:24:58.494Z,22.37
2018-12-31T00:27:27.883Z,24.30
2018-12-31T00:29:57.793Z,28.85
2018-12-31T00:32:27.927Z,31.40
2018-12-31T00:34:57.020Z,27.20
2018-12-31T00:37:26.306Z,26.77
2018-12-31T00:39:55.813Z,38.08
2018-12-31T00:42:25.102Z,33.45
2018-12-31T00:44:54.401Z,28.38
2018-12-31T00:47:23.430Z,28.80
2018-12-31T00:49:52.313Z,28.62
2018-12-31T00:52:21.597Z,31.37
2018-12-31T00:54:51.464Z,25.68
2018-12-31T00:57:20.802Z,25.72
2018-12-31T00:59:50.362Z,31.25
2018-12-31T01:02:19.583Z,24.95
2018-12-31T01:04:49.075Z,25.10
2018-12-31T01:07:18.610Z,29.75
2018-12-31T01:09:48.004Z,26.97
2018-12-31T01:12:17.355Z,28.70
2018-12-31T01:14:46.241Z,29.02
2018-12-31T01:17:15.265Z,20.90
2018-12-31T01:19:44.820Z,25.57
2018-12-31T01:22:14.178Z,25.00
2018-12-31T01:24:43.139Z,32.30
2018-12-31T01:27:12.837Z,29.85
2018-12-31T01:29:42.437Z,26.30
2018-12-31T01:32:11.617Z,24.15
2018-12-31T01:34:41.245Z,24.57
2018-12-31T01:37:10.142Z,30.25
2018-12-31T01:39:39.135Z,35.17
2018-12-31T01:42:08.120Z,25.62
2018-12-31T01:44:37.313Z,31.42
2018-12-31T01:47:06.572Z,23.85
2018-12-31T01:49:35.720Z,24.23
2018-12-31T01:52:05.024Z,21.80
2018-12-31T01:54:34.335Z,22.52
2018-12-31T01:57:03.614Z,20.92
2018-12-31T01:59:32.656Z,31.07
2018-12-31T02:02:01.696Z,21.70
2018-12-31T02:04:30.931Z,18.73
2018-12-31T02:07:00.896Z,22.50
2018-12-31T02:09:30.225Z,23.92
2018-12-31T02:12:00.122Z,23.92
2018-12-31T02:14:29.079Z,24.18
2018-12-31T02:16:58.173Z,26.95
2018-12-31T02:19:27.212Z,22.77
2018-12-31T02:22:35.793Z,22.42
2018-12-31T02:25:05.483Z,24.25
2018-12-31T02:27:34.575Z,25.77
2018-12-31T02:30:03.847Z,23.90
2018-12-31T02:32:33.200Z,23.62
2018-12-31T02:35:02.632Z,20.75
2018-12-31T02:37:31.958Z,23.70
2018-12-31T02:40:01.450Z,22.58
2018-12-31T02:42:30.528Z,24.23
2018-12-31T02:44:59.880Z,20.00
2018-12-31T02:47:29.166Z,19.17
2018-12-31T02:49:58.661Z,22.95
2018-12-31T02:52:28.263Z,17.98
2018-12-31T02:54:57.603Z,20.35
2018-12-31T02:57:27.617Z,18.42
2018-12-31T02:59:59.063Z,17.50
2018-12-31T03:02:28.340Z,20.25
2018-12-31T03:04:57.303Z,18.50
2018-12-31T03:07:26.531Z,15.90
2018-12-31T03:09:56.373Z,17.50
2018-12-31T03:12:25.652Z,15.13
2018-12-31T03:14:55.356Z,14.68
2018-12-31T03:17:24.644Z,9.75
2018-12-31T03:19:54.267Z,11.05
2018-12-31T03:22:23.761Z,12.15
2018-12-31T03:24:53.741Z,11.20
2018-12-31T03:27:22.698Z,9.13
2018-12-31T03:29:52.278Z,13.25
2018-12-31T03:32:21.255Z,11.35
2018-12-31T03:34:50.899Z,15.70
2018-12-31T03:37:20.178Z,10.45
2018-12-31T03:39:49.785Z,9.65
2018-12-31T03:42:18.906Z,9.25
2018-12-31T03:44:50.188Z,13.93
2018-12-31T03:47:19.857Z,11.83
2018-12-31T03:49:49.118Z,9.93
2018-12-31T03:52:18.013Z,11.95
2018-12-31T03:54:47.329Z,9.78
2018-12-31T03:57:17.171Z,9.13
2018-12-31T03:59:46.139Z,7.85
2018-12-31T04:02:15.444Z,8.20
2018-12-31T04:04:44.574Z,10.95
2018-12-31T04:07:14.263Z,10.20
2018-12-31T04:09:43.352Z,8.48
2018-12-31T04:12:12.860Z,8.10
2018-12-31T04:14:42.143Z,8.08
2018-12-31T04:17:11.063Z,10.48
2018-12-31T04:19:40.339Z,13.78
2018-12-31T04:22:09.392Z,12.47
2018-12-31T04:24:38.744Z,11.30
2018-12-31T04:27:08.397Z,14.30
2018-12-31T04:29:37.736Z,10.98
2018-12-31T04:32:07.341Z,13.88
2018-12-31T04:34:36.337Z,11.85
2018-12-31T04:37:05.646Z,11.68
2018-12-31T04:39:34.669Z,13.05
2018-12-31T04:42:03.987Z,13.35
2018-12-31T04:44:33.302Z,11.60
2018-12-31T04:47:02.366Z,12.00
2018-12-31T04:49:32.057Z,15.45
2018-12-31T04:52:01.397Z,13.95
2018-12-31T04:54:31.046Z,15.75
2018-12-31T04:57:00.033Z,12.35
2018-12-31T04:59:29.085Z,14.58
2018-12-31T05:01:58.771Z,11.80
2018-12-31T05:04:27.885Z,11.00
2018-12-31T05:06:56.876Z,14.20
2018-12-31T05:09:26.439Z,15.83
2018-12-31T05:11:55.866Z,10.48
2018-12-31T05:14:24.874Z,14.87
2018-12-31T05:16:54.131Z,20.27
2018-12-31T05:19:25.226Z,10.85
2018-12-31T05:21:54.904Z,13.22
2018-12-31T05:24:24.184Z,12.47
2018-12-31T05:26:53.916Z,15.48
2018-12-31T05:29:23.310Z,13.60
2018-12-31T05:31:53.059Z,15.18
2018-12-31T05:34:22.587Z,15.35
2018-12-31T05:36:52.136Z,11.70
2018-12-31T05:39:21.105Z,10.25
2018-12-31T05:41:50.532Z,11.40
2018-12-31T05:44:19.958Z,10.23
2018-12-31T05:46:48.977Z,14.83
2018-12-31T05:49:18.067Z,9.80
2018-12-31T05:51:47.334Z,9.70
2018-12-31T05:54:16.618Z,10.03
2018-12-31T05:56:45.650Z,8.55
2018-12-31T05:59:14.929Z,8.08
2018-12-31T06:01:44.352Z,9.10
2018-12-31T06:04:13.741Z,10.30
2018-12-31T06:06:43.116Z,10.08
2018-12-31T06:09:12.933Z,12.58
2018-12-31T06:11:42.182Z,9.28
2018-12-31T06:14:11.381Z,7.08
2018-12-31T06:16:41.546Z,7.50
2018-12-31T06:19:10.963Z,9.03
2018-12-31T06:21:40.255Z,8.70
2018-12-31T06:24:10.602Z,11.80
2018-12-31T06:26:39.501Z,9.83
2018-12-31T06:29:09.522Z,9.50
2018-12-31T06:31:38.483Z,9.85
2018-12-31T06:34:07.880Z,9.58
2018-12-31T06:36:37.182Z,9.53
2018-12-31T06:39:08.637Z,8.23
2018-12-31T06:41:38.039Z,7.95
2018-12-31T06:44:07.872Z,9.85
2018-12-31T06:46:37.460Z,11.63
2018-12-31T06:49:07.265Z,10.58
2018-12-31T06:51:36.264Z,8.43
2018-12-31T06:54:05.553Z,8.68
2018-12-31T06:56:35.061Z,9.88
2018-12-31T06:59:04.261Z,12.20
2018-12-31T07:01:33.120Z,10.58
2018-12-31T07:04:02.460Z,8.55
2018-12-31T07:06:31.779Z,9.33
2018-12-31T07:09:01.893Z,11.73
2018-12-31T07:11:31.170Z,16.62
2018-12-31T07:14:00.480Z,14.90
2018-12-31T07:16:30.071Z,9.98
2018-12-31T07:18:59.042Z,10.75
2018-12-31T07:21:28.502Z,8.13
2018-12-31T07:23:57.450Z,7.75
2018-12-31T07:26:26.663Z,12.40
2018-12-31T07:28:56.990Z,6.08
2018-12-31T07:31:26.227Z,6.22
2018-12-31T07:33:55.910Z,5.40
2018-12-31T07:36:24.902Z,9.73
2018-12-31T07:38:54.403Z,9.80
2018-12-31T07:41:23.346Z,6.10
2018-12-31T07:43:52.666Z,6.62
2018-12-31T07:46:22.313Z,11.48
2018-12-31T07:48:51.962Z,8.30
2018-12-31T07:51:21.314Z,4.58
2018-12-31T07:53:50.539Z,5.08
2018-12-31T07:56:20.628Z,5.90
2018-12-31T07:58:49.847Z,6.65
2018-12-31T08:01:19.117Z,6.17
2018-12-31T08:03:48.176Z,5.40
2018-12-31T08:06:17.158Z,4.50
2018-12-31T08:08:46.312Z,4.20
2018-12-31T08:11:15.822Z,5.60
2018-12-31T08:13:45.437Z,3.90
2018-12-31T08:16:14.675Z,4.67
2018-12-31T08:18:43.743Z,3.83
2018-12-31T08:21:13.225Z,2.98
2018-12-31T08:23:42.527Z,4.10
2018-12-31T08:26:11.941Z,4.67
2018-12-31T08:28:42.069Z,2.52
2018-12-31T08:31:11.094Z,2.75
2018-12-31T08:33:40.142Z,2.42
2018-12-31T08:36:09.445Z,2.40
2018-12-31T08:38:39.781Z,2.00
2018-12-31T08:41:08.880Z,2.12
2018-12-31T08:43:38.315Z,2.20
2018-12-31T08:46:07.633Z,3.00
2018-12-31T08:48:36.594Z,2.85
2018-12-31T08:51:05.959Z,2.85
2018-12-31T08:53:35.459Z,2.90
2018-12-31T08:56:05.046Z,2.20
2018-12-31T08:58:34.104Z,9.05
2018-12-31T09:01:04.751Z,2.60
2018-12-31T09:03:34.186Z,2.75
2018-12-31T09:06:03.519Z,2.27
2018-12-31T09:08:34.772Z,2.65
2018-12-31T09:11:04.139Z,3.30
2018-12-31T09:13:33.139Z,2.05
2018-12-31T09:16:02.443Z,2.83
2018-12-31T09:18:31.739Z,4.40
2018-12-31T09:21:00.938Z,2.75
2018-12-31T09:23:30.083Z,2.30
2018-12-31T09:25:59.214Z,3.08
2018-12-31T09:28:28.984Z,3.33
2018-12-31T09:30:58.182Z,2.35
2018-12-31T09:33:27.750Z,2.30
2018-12-31T09:35:57.043Z,2.80
2018-12-31T09:38:25.969Z,3.00
2018-12-31T09:40:55.181Z,3.12
2018-12-31T09:43:24.880Z,2.95
2018-12-31T09:45:53.946Z,3.50
2018-12-31T09:48:23.244Z,3.25
2018-12-31T09:50:52.255Z,3.77
2018-12-31T09:53:21.215Z,3.58
2018-12-31T09:55:50.440Z,3.70
2018-12-31T09:58:19.722Z,3.77
2018-12-31T10:00:49.031Z,3.45
2018-12-31T10:03:18.285Z,3.83
2018-12-31T10:05:47.578Z,3.87
2018-12-31T10:08:16.485Z,4.22
2018-12-31T10:10:47.577Z,4.28
2018-12-31T10:13:16.664Z,4.67
2018-12-31T10:15:45.965Z,7.62
2018-12-31T10:18:15.140Z,4.30
2018-12-31T10:20:44.632Z,4.30
2018-12-31T10:23:14.167Z,4.83
2018-12-31T10:25:43.156Z,4.50
2018-12-31T10:28:12.768Z,4.90
2018-12-31T10:30:42.398Z,4.40
2018-12-31T10:33:11.338Z,5.20
2018-12-31T10:35:40.199Z,5.60
2018-12-31T10:38:09.180Z,4.70
2018-12-31T10:40:38.222Z,4.80
2018-12-31T10:43:07.774Z,5.15
2018-12-31T10:45:37.064Z,6.47
2018-12-31T10:48:06.899Z,4.22
2018-12-31T10:50:36.163Z,4.90
2018-12-31T10:53:05.133Z,4.50
2018-12-31T10:55:34.524Z,5.62
2018-12-31T10:58:04.271Z,4.75
2018-12-31T11:00:33.898Z,5.28
2018-12-31T11:03:02.885Z,4.92
2018-12-31T11:05:31.902Z,4.90
2018-12-31T11:08:01.214Z,5.05
2018-12-31T11:10:30.867Z,5.00
2018-12-31T11:13:00.085Z,5.05
2018-12-31T11:15:29.691Z,7.22
2018-12-31T11:17:58.655Z,5.75
2018-12-31T11:20:28.733Z,5.83
2018-12-31T11:22:58.090Z,5.17
2018-12-31T11:25:27.148Z,5.35
2018-12-31T11:27:56.137Z,4.35
2018-12-31T11:30:25.118Z,6.60
2018-12-31T11:32:54.330Z,6.62
2018-12-31T11:35:23.304Z,5.40
2018-12-31T11:37:52.575Z,7.50
2018-12-31T11:40:21.536Z,5.12
2018-12-31T11:42:50.750Z,8.15
2018-12-31T11:45:20.055Z,7.85
2018-12-31T11:47:49.690Z,6.08
2018-12-31T11:50:18.898Z,6.42
2018-12-31T11:52:48.171Z,5.65
2018-12-31T11:55:17.443Z,6.40
2018-12-31T11:57:47.065Z,13.88
2018-12-31T12:00:16.124Z,6.67
2018-12-31T12:02:46.290Z,5.30
2018-12-31T12:05:15.753Z,5.95
2018-12-31T12:07:45.341Z,5.92
2018-12-31T12:10:14.336Z,6.85
2018-12-31T12:12:43.413Z,5.78
2018-12-31T12:15:12.767Z,6.80
2018-12-31T12:17:41.986Z,6.85
2018-12-31T12:20:11.278Z,6.67
2018-12-31T12:22:40.226Z,6.15
2018-12-31T12:25:09.224Z,7.25
2018-12-31T12:27:38.632Z,6.62
2018-12-31T12:30:08.891Z,6.10
2018-12-31T12:32:38.225Z,8.13
2018-12-31T12:35:07.927Z,6.58
2018-12-31T12:37:37.205Z,7.10
2018-12-31T12:40:07.308Z,7.47
2018-12-31T12:42:36.719Z,7.87
2018-12-31T12:45:06.880Z,7.60
2018-12-31T12:47:35.997Z,5.40
2018-12-31T12:50:06.996Z,6.65
2018-12-31T12:52:36.384Z,5.85
2018-12-31T12:55:05.464Z,5.20
2018-12-31T12:57:35.089Z,7.15
2018-12-31T13:00:04.446Z,4.62
2018-12-31T13:02:33.904Z,5.30
2018-12-31T13:05:03.797Z,4.70
2018-12-31T13:07:33.328Z,5.35
2018-12-31T13:10:02.723Z,8.10
2018-12-31T13:12:31.861Z,5.03
2018-12-31T13:15:00.927Z,5.03
2018-12-31T13:17:30.122Z,4.83
2018-12-31T13:19:59.890Z,6.70
2018-12-31T13:22:29.121Z,5.05
2018-12-31T13:24:58.643Z,5.25
2018-12-31T13:27:27.591Z,5.00
2018-12-31T13:29:57.121Z,5.33
2018-12-31T13:32:26.876Z,5.17
2018-12-31T13:34:55.857Z,5.37
2018-12-31T13:37:24.906Z,5.35
2018-12-31T13:39:54.339Z,6.05
2018-12-31T13:42:23.632Z,7.15
2018-12-31T13:44:52.884Z,5.83
2018-12-31T13:47:22.235Z,4.47
2018-12-31T13:49:51.216Z,4.87
2018-12-31T13:52:20.918Z,5.20
2018-12-31T13:54:49.810Z,5.70
2018-12-31T13:57:19.348Z,6.12
2018-12-31T13:59:48.685Z,5.60
2018-12-31T14:02:18.179Z,12.70
2018-12-31T14:04:47.148Z,6.40
2018-12-31T14:07:16.314Z,6.20
2018-12-31T14:09:45.731Z,6.00
2018-12-31T14:12:15.226Z,7.37
2018-12-31T14:14:44.441Z,7.30
2018-12-31T14:17:13.693Z,7.65
2018-12-31T14:19:42.687Z,7.33
2018-12-31T14:22:11.691Z,6.85
2018-12-31T14:24:40.631Z,6.22
2018-12-31T14:27:09.817Z,6.72
2018-12-31T14:29:39.117Z,7.22
2018-12-31T14:32:08.107Z,7.17
2018-12-31T14:34:37.402Z,7.83
2018-12-31T14:37:06.376Z,6.03
2018-12-31T14:39:35.784Z,8.98
2018-12-31T14:42:05.038Z,6.90
2018-12-31T14:44:34.286Z,8.43
2018-12-31T14:47:03.284Z,8.00
2018-12-31T14:49:32.353Z,5.85
2018-12-31T14:52:01.316Z,8.68
2018-12-31T14:54:30.399Z,5.47
2018-12-31T14:56:59.662Z,6.30
2018-12-31T14:59:28.683Z,6.72
2018-12-31T15:01:57.622Z,7.37
2018-12-31T15:04:26.635Z,11.65
2018-12-31T15:06:55.595Z,6.22
2018-12-31T15:09:24.843Z,7.50
2018-12-31T15:11:54.456Z,7.75
2018-12-31T15:14:23.753Z,7.17
2018-12-31T15:16:52.685Z,8.00
2018-12-31T15:19:21.627Z,7.40
2018-12-31T15:21:51.361Z,8.30
2018-12-31T15:24:21.110Z,8.75
2018-12-31T15:26:50.694Z,11.30
2018-12-31T15:29:19.677Z,8.70
2018-12-31T15:31:49.001Z,8.15
2018-12-31T15:34:18.273Z,7.90
2018-12-31T15:36:47.231Z,8.83
2018-12-31T15:39:16.533Z,8.55
2018-12-31T15:41:45.600Z,7.58
2018-12-31T15:44:14.980Z,9.90
2018-12-31T15:46:44.282Z,9.78
2018-12-31T15:49:13.864Z,11.25
2018-12-31T15:51:43.535Z,10.93
2018-12-31T15:54:13.251Z,10.63
2018-12-31T15:56:42.239Z,9.68
2018-12-31T15:59:11.617Z,13.08
2018-12-31T16:01:41.284Z,14.95
2018-12-31T16:04:10.369Z,9.80
2018-12-31T16:06:39.668Z,12.50
2018-12-31T16:09:08.856Z,11.30
2018-12-31T16:11:38.041Z,15.30
2018-12-31T16:14:07.473Z,13.78
2018-12-31T16:16:36.784Z,12.60
2018-12-31T16:19:06.074Z,13.40
2018-12-31T16:21:35.080Z,14.87
2018-12-31T16:24:05.259Z,12.75
2018-12-31T16:26:34.496Z,14.68
2018-12-31T16:29:03.504Z,11.63
2018-12-31T16:31:32.508Z,12.63
2018-12-31T16:34:01.803Z,12.05
2018-12-31T16:36:31.067Z,13.65
2018-12-31T16:39:00.053Z,14.63
2018-12-31T16:41:29.865Z,12.05
2018-12-31T16:43:58.926Z,13.38
2018-12-31T16:46:28.406Z,16.10
2018-12-31T16:48:57.806Z,11.80
2018-12-31T16:51:27.113Z,18.30
2018-12-31T16:53:56.134Z,13.70
2018-12-31T16:56:25.181Z,15.60
2018-12-31T16:58:54.251Z,13.18
2018-12-31T17:01:23.241Z,13.53
2018-12-31T17:03:52.895Z,16.23
2018-12-31T17:06:22.380Z,18.73
2018-12-31T17:08:51.689Z,16.90
2018-12-31T17:11:21.140Z,16.27
2018-12-31T17:13:50.546Z,20.90
2018-12-31T17:16:19.530Z,19.32
2018-12-31T17:18:48.522Z,18.65
2018-12-31T17:21:17.427Z,30.32
2018-12-31T17:23:47.092Z,40.43
2018-12-31T17:26:16.268Z,23.47
2018-12-31T17:28:45.486Z,27.90
2018-12-31T17:31:15.081Z,22.15
2018-12-31T17:33:44.910Z,25.45
2018-12-31T17:36:14.037Z,27.62
2018-12-31T17:38:43.593Z,20.30
2018-12-31T17:41:12.601Z,20.57
2018-12-31T17:43:41.964Z,22.93
2018-12-31T17:46:10.952Z,17.80
2018-12-31T17:48:39.991Z,24.63
2018-12-31T17:51:09.472Z,19.40
2018-12-31T17:53:38.920Z,21.87
2018-12-31T17:56:08.014Z,19.32
2018-12-31T17:58:37.372Z,18.90
2018-12-31T18:01:06.674Z,19.12
2018-12-31T18:03:36.901Z,19.25
2018-12-31T18:06:06.771Z,20.40
2018-12-31T18:08:35.769Z,21.90
2018-12-31T18:11:04.754Z,21.30
2018-12-31T18:13:34.145Z,16.77
2018-12-31T18:16:03.982Z,18.75
2018-12-31T18:18:33.301Z,17.85
2018-12-31T18:21:02.650Z,18.95
2018-12-31T18:23:32.530Z,19.82
2018-12-31T18:26:01.894Z,21.52
2018-12-31T18:28:31.537Z,18.87
2018-12-31T18:31:00.745Z,19.52
2018-12-31T18:33:30.255Z,17.37
2018-12-31T18:36:00.278Z,22.05
2018-12-31T18:38:29.666Z,27.48
2018-12-31T18:40:58.824Z,22.00
2018-12-31T18:43:28.164Z,27.67
2018-12-31T18:45:57.179Z,19.55
2018-12-31T18:48:26.275Z,20.72
2018-12-31T18:50:55.749Z,21.20
2018-12-31T18:53:24.765Z,22.60
2018-12-31T18:55:54.055Z,21.37
2018-12-31T18:58:23.443Z,20.08
2018-12-31T19:00:53.383Z,21.15
2018-12-31T19:03:22.666Z,19.52
2018-12-31T19:05:51.669Z,22.22
2018-12-31T19:08:20.958Z,19.25
2018-12-31T19:10:50.374Z,17.87
2018-12-31T19:13:19.888Z,27.93
2018-12-31T19:15:49.176Z,21.75
2018-12-31T19:18:18.165Z,22.17
2018-12-31T19:20:47.100Z,22.15
2018-12-31T19:23:15.968Z,20.45
2018-12-31T19:25:44.837Z,22.60
2018-12-31T19:28:13.738Z,31.90
2018-12-31T19:30:42.964Z,22.62
2018-12-31T19:33:12.137Z,25.72
2018-12-31T19:35:41.451Z,24.32
2018-12-31T19:38:10.818Z,25.60
2018-12-31T19:40:40.158Z,26.87
2018-12-31T19:43:09.744Z,24.57
2018-12-31T19:45:39.130Z,23.20
2018-12-31T19:48:08.126Z,25.60
2018-12-31T19:50:37.325Z,21.50
2018-12-31T19:53:06.408Z,27.02
2018-12-31T19:55:35.587Z,20.72
2018-12-31T19:58:04.722Z,19.90
2018-12-31T20:00:33.797Z,18.80
2018-12-31T20:03:02.841Z,21.02
2018-12-31T20:05:31.867Z,21.37
2018-12-31T20:08:01.037Z,28.50
2018-12-31T20:10:30.408Z,24.00
2018-12-31T20:13:00.106Z,25.43
2018-12-31T20:15:30.019Z,22.48
2018-12-31T20:17:59.646Z,26.17
2018-12-31T20:20:29.144Z,29.37
2018-12-31T20:22:58.698Z,36.77
2018-12-31T20:25:28.213Z,35.43
2018-12-31T20:27:57.795Z,37.33
2018-12-31T20:30:26.951Z,40.50
2018-12-31T20:32:56.295Z,36.77
2018-12-31T20:35:25.697Z,34.67
2018-12-31T20:37:55.565Z,39.83
2018-12-31T20:40:24.562Z,35.98
2018-12-31T20:42:53.860Z,40.63
2018-12-31T20:45:24.218Z,40.90
2018-12-31T20:48:01.481Z,40.78
2018-12-31T20:50:24.225Z,38.05
2018-12-31T20:52:53.369Z,40.92
2018-12-31T20:55:22.349Z,40.03
2018-12-31T20:57:52.349Z,37.40
2018-12-31T21:00:21.862Z,39.35
2018-12-31T21:02:51.365Z,44.05
2018-12-31T21:05:20.263Z,44.93
2018-12-31T21:07:50.046Z,42.83
2018-12-31T21:10:19.657Z,44.05
2018-12-31T21:12:49.181Z,49.27
2018-12-31T21:15:18.150Z,43.15
2018-12-31T21:17:47.537Z,44.63
2018-12-31T21:20:17.063Z,43.02
2018-12-31T21:22:46.669Z,42.70
2018-12-31T21:25:16.448Z,38.67
2018-12-31T21:27:45.781Z,44.73
2018-12-31T21:30:15.503Z,52.13
2018-12-31T21:32:44.506Z,52.20
2018-12-31T21:35:14.397Z,42.65
2018-12-31T21:37:44.211Z,38.00
2018-12-31T21:40:13.826Z,43.45
2018-12-31T21:42:42.776Z,51.83
2018-12-31T21:45:12.119Z,52.75
2018-12-31T21:47:41.740Z,54.05
2018-12-31T21:50:11.126Z,63.65
2018-12-31T21:52:40.019Z,49.00
2018-12-31T21:55:09.178Z,51.60
2018-12-31T21:57:38.415Z,52.85
2018-12-31T22:00:08.344Z,49.23
2018-12-31T22:02:38.441Z,50.98
2018-12-31T22:05:08.055Z,51.55
2018-12-31T22:07:37.583Z,48.98
2018-12-31T22:10:06.620Z,57.73
2018-12-31T22:12:36.045Z,55.20
2018-12-31T22:15:08.331Z,61.18
2018-12-31T22:17:37.621Z,58.20
2018-12-31T22:20:10.735Z,248.47
2018-12-31T22:22:40.016Z,997.45
2018-12-31T22:25:09.046Z,650.67
2018-12-31T22:27:38.059Z,363.10
2018-12-31T22:30:08.848Z,105.10
2018-12-31T22:32:38.141Z,67.37
2018-12-31T22:35:07.479Z,80.70
2018-12-31T22:37:36.318Z,75.28
2018-12-31T22:40:05.760Z,65.22
2018-12-31T22:42:35.144Z,89.35
2018-12-31T22:45:04.286Z,70.83
2018-12-31T22:47:33.629Z,66.47
2018-12-31T22:50:03.519Z,57.62
2018-12-31T22:52:33.164Z,51.45
2018-12-31T22:55:02.662Z,45.75
2018-12-31T22:57:31.687Z,51.02
2018-12-31T23:00:01.364Z,46.85
2018-12-31T23:02:30.685Z,48.38
2018-12-31T23:04:59.983Z,52.43
2018-12-31T23:07:29.261Z,47.65
2018-12-31T23:09:58.692Z,53.35
2018-12-31T23:12:27.758Z,49.45
2018-12-31T23:14:57.587Z,53.13
2018-12-31T23:17:26.803Z,71.05
2018-12-31T23:19:55.768Z,64.42
2018-12-31T23:22:24.679Z,72.60
2018-12-31T23:24:54.781Z,65.05
2018-12-31T23:27:23.822Z,94.25
2018-12-31T23:29:53.482Z,265.35
2018-12-31T23:32:23.086Z,220.42
2018-12-31T23:34:52.393Z,248.05
2018-12-31T23:37:21.692Z,176.05
2018-12-31T23:39:50.902Z,165.15
2018-12-31T23:42:19.921Z,153.53
2018-12-31T23:44:53.061Z,151.00
2018-12-31T23:47:20.218Z,152.45
2018-12-31T23:49:49.601Z,280.65
2018-12-31T23:52:18.655Z,365.77
2018-12-31T23:54:48.119Z,441.57
2018-12-31T23:57:17.959Z,376.58
2018-12-31T23:59:47.676Z,307.37
